Time;durP1;ratioP1;P1;durP2;ratioP2;P2;SDS_P1;SDS_P2;PMS_P1;PMS_P2;Temp;Humidity;BMP_temperature;BMP_pressure;BME280_temperature;BME280_humidity;BME280_pressure;Samples;Min_cycle;Max_cycle;Signal;HPM_P1;HPM_P2
2022/01/26 00:06:28;;;;;;;29.35;10.38;;;;;;;;;;4920673;29;20051;-31
2022/01/26 00:08:54;;;;;;;26.00;11.18;;;;;;;;;;4920509;29;20059;-31
2022/01/26 00:11:20;;;;;;;21.40;10.05;;;;;;;;;;4920486;29;20076;-31
2022/01/26 00:13:46;;;;;;;24.88;9.57;;;;;;;;;;4920250;29;20028;-32
2022/01/26 00:16:26;;;;;;;19.85;9.80;;;;;;;;;;4920252;29;20034;-33
2022/01/26 00:18:56;;;;;;;31.77;11.07;;;;;;;;;;4920380;29;20032;-31
2022/01/26 00:27:27;;;;;;;25.23;9.93;;;;;;;;;;4912152;29;20048;-30
2022/01/26 00:32:56;;;;;;;28.55;10.52;;;;;;;;;;4920176;29;20388;-30
2022/01/26 00:41:06;;;;;;;30.13;10.60;;;;;;;;;;4920879;29;20055;-31
2022/01/26 00:43:33;;;;;;;17.70;9.80;;;;;;;;;;4920164;29;20036;-31
2022/01/26 00:46:06;;;;;;;17.65;8.38;;;;;;;;;;4919632;29;20475;-31
2022/01/26 00:48:34;;;;;;;24.23;8.73;;;;;;;;;;4919531;29;20044;-30
2022/01/26 00:51:04;;;;;;;18.13;10.45;;;;;;;;;;4919421;29;20036;-29
2022/01/26 00:53:37;;;;;;;18.67;9.00;;;;;;;;;;4919411;29;20120;-31
2022/01/26 00:56:04;;;;;;;22.52;10.50;;;;;;;;;;4920064;29;20104;-31
2022/01/26 00:58:30;;;;;;;21.52;10.80;;;;;;;;;;4920093;29;20134;-30
2022/01/26 01:01:02;;;;;;;19.17;9.90;;;;;;;;;;4918502;29;20348;-29
2022/01/26 01:03:30;;;;;;;17.77;9.65;;;;;;;;;;4919138;29;20131;-32
2022/01/26 01:06:04;;;;;;;24.05;9.63;;;;;;;;;;4918685;29;20053;-31
2022/01/26 01:08:30;;;;;;;21.65;10.05;;;;;;;;;;4918430;29;20039;-31
2022/01/26 01:10:57;;;;;;;16.60;9.77;;;;;;;;;;4919235;29;20044;-31
2022/01/26 01:13:32;;;;;;;17.60;8.35;;;;;;;;;;4919211;29;20032;-32
2022/01/26 01:15:58;;;;;;;30.30;10.00;;;;;;;;;;4918917;29;20352;-31
2022/01/26 01:18:34;;;;;;;20.15;10.70;;;;;;;;;;4919265;29;20131;-29
2022/01/26 01:31:49;;;;;;;26.63;10.65;;;;;;;;;;4918808;29;20040;-29
2022/01/26 01:34:21;;;;;;;27.52;9.88;;;;;;;;;;4917897;29;20384;-30
2022/01/26 01:36:50;;;;;;;19.50;9.95;;;;;;;;;;4917824;29;20051;-31
2022/01/26 01:39:17;;;;;;;21.85;9.40;;;;;;;;;;4919065;29;20028;-30
2022/01/26 01:41:45;;;;;;;20.15;10.13;;;;;;;;;;4919239;29;20118;-30
2022/01/26 01:44:11;;;;;;;22.10;9.70;;;;;;;;;;4918703;29;20119;-30
2022/01/26 01:46:38;;;;;;;19.90;10.85;;;;;;;;;;4918641;29;20345;-30
2022/01/26 01:49:06;;;;;;;19.30;10.45;;;;;;;;;;4919154;29;20393;-31
2022/01/26 01:51:36;;;;;;;18.73;9.32;;;;;;;;;;4918766;29;20032;-31
2022/01/26 01:54:03;;;;;;;19.30;9.95;;;;;;;;;;4918799;29;20033;-30
2022/01/26 01:56:29;;;;;;;24.08;10.85;;;;;;;;;;4917570;29;20028;-30
2022/01/26 01:58:58;;;;;;;19.73;9.90;;;;;;;;;;4918429;29;20472;-32
2022/01/26 02:01:24;;;;;;;16.10;9.10;;;;;;;;;;4918725;29;20104;-30
2022/01/26 02:03:50;;;;;;;19.75;9.82;;;;;;;;;;4918181;29;20059;-30
2022/01/26 02:06:17;;;;;;;17.58;9.07;;;;;;;;;;4918397;29;20036;-30
2022/01/26 02:08:43;;;;;;;27.27;11.23;;;;;;;;;;4918379;29;20091;-30
2022/01/26 02:11:11;;;;;;;20.42;9.75;;;;;;;;;;4917338;29;20048;-30
2022/01/26 02:13:57;;;;;;;17.58;10.07;;;;;;;;;;4918236;29;20028;-30
2022/01/26 02:16:30;;;;;;;16.55;9.68;;;;;;;;;;4918744;29;20082;-31
2022/01/26 02:57:25;;;;;;;13.65;10.23;;;;;;;;;;4918259;29;20135;-30
2022/01/26 03:04:51;;;;;;;15.82;10.05;;;;;;;;;;4918389;29;20036;-30
2022/01/26 03:07:25;;;;;;;20.05;10.43;;;;;;;;;;4917807;29;20067;-29
2022/01/26 03:10:05;;;;;;;18.17;9.05;;;;;;;;;;4918076;29;20040;-30
2022/01/26 03:12:47;;;;;;;19.73;11.23;;;;;;;;;;4918036;29;20048;-29
2022/01/26 03:15:19;;;;;;;16.33;10.55;;;;;;;;;;4917758;29;20045;-30
2022/01/26 03:18:11;;;;;;;16.48;9.80;;;;;;;;;;4918014;29;20046;-30
2022/01/26 03:20:37;;;;;;;15.25;9.90;;;;;;;;;;4917668;29;20108;-30
2022/01/26 03:29:38;;;;;;;20.40;10.40;;;;;;;;;;4919270;29;20099;-30
2022/01/26 03:34:12;;;;;;;14.60;9.68;;;;;;;;;;4921181;29;20047;-30
2022/01/26 03:36:52;;;;;;;14.93;9.27;;;;;;;;;;4921276;29;20111;-31
2022/01/26 03:39:20;;;;;;;18.25;11.10;;;;;;;;;;4921746;29;20028;-30
2022/01/26 03:41:51;;;;;;;22.92;11.38;;;;;;;;;;4921355;29;20111;-30
2022/01/26 03:44:18;;;;;;;18.10;10.27;;;;;;;;;;4921434;29;20024;-30
2022/01/26 03:46:45;;;;;;;15.68;10.75;;;;;;;;;;4921037;29;20086;-30
2022/01/26 03:49:11;;;;;;;17.42;10.20;;;;;;;;;;4920783;29;20372;-30
2022/01/26 03:51:38;;;;;;;18.63;12.70;;;;;;;;;;4920703;29;20036;-29
2022/01/26 03:54:05;;;;;;;17.60;10.15;;;;;;;;;;4920644;29;20115;-30
2022/01/26 03:56:31;;;;;;;19.45;11.38;;;;;;;;;;4920901;29;20032;-30
2022/01/26 03:58:58;;;;;;;14.07;10.02;;;;;;;;;;4920864;29;20040;-30
2022/01/26 04:01:24;;;;;;;16.85;9.88;;;;;;;;;;4920785;29;20023;-30
2022/01/26 04:03:50;;;;;;;18.05;9.75;;;;;;;;;;4920263;29;20129;-30
2022/01/26 04:06:17;;;;;;;14.45;10.65;;;;;;;;;;4920455;29;20025;-31
2022/01/26 04:08:44;;;;;;;15.30;10.55;;;;;;;;;;4919489;29;20032;-31
2022/01/26 04:13:50;;;;;;;14.65;9.55;;;;;;;;;;4920575;29;20051;-30
2022/01/26 04:16:17;;;;;;;12.90;10.57;;;;;;;;;;4920304;29;20408;-30
2022/01/26 04:18:43;;;;;;;20.58;10.60;;;;;;;;;;4920209;29;20419;-30
2022/01/26 04:21:26;;;;;;;11.27;10.13;;;;;;;;;;4920443;29;20365;-30
2022/01/26 04:24:01;;;;;;;16.05;10.20;;;;;;;;;;4920083;29;20036;-30
2022/01/26 04:26:34;;;;;;;15.10;9.88;;;;;;;;;;4920398;29;20051;-30
2022/01/26 04:29:06;;;;;;;14.43;10.45;;;;;;;;;;4920083;29;20028;-30
2022/01/26 04:31:32;;;;;;;17.85;11.40;;;;;;;;;;4919938;29;20468;-31
2022/01/26 04:33:59;;;;;;;14.82;10.25;;;;;;;;;;4920130;29;20028;-41
2022/01/26 04:36:31;;;;;;;13.95;10.80;;;;;;;;;;4920610;29;20032;-31
2022/01/26 04:39:02;;;;;;;20.23;9.95;;;;;;;;;;4920077;29;20039;-30
2022/01/26 04:41:37;;;;;;;14.67;9.83;;;;;;;;;;4918973;29;20066;-30
2022/01/26 04:44:10;;;;;;;22.80;11.38;;;;;;;;;;4920002;29;20032;-31
2022/01/26 04:46:36;;;;;;;15.65;10.20;;;;;;;;;;4920476;29;20039;-31
2022/01/26 04:49:03;;;;;;;17.42;10.70;;;;;;;;;;4919939;29;20036;-31
2022/01/26 04:51:30;;;;;;;13.70;11.15;;;;;;;;;;4918553;29;20066;-29
2022/01/26 04:53:56;;;;;;;16.15;10.60;;;;;;;;;;4919628;29;20417;-30
2022/01/26 04:56:22;;;;;;;12.18;10.98;;;;;;;;;;4919731;29;20024;-30
2022/01/26 04:58:48;;;;;;;16.30;10.93;;;;;;;;;;4919557;29;20105;-30
2022/01/26 05:01:15;;;;;;;16.00;11.48;;;;;;;;;;4919365;29;20444;-29
2022/01/26 05:03:41;;;;;;;17.58;11.50;;;;;;;;;;4919141;29;20056;-30
2022/01/26 05:06:07;;;;;;;13.40;10.77;;;;;;;;;;4918973;29;20099;-30
2022/01/26 05:08:33;;;;;;;14.60;10.60;;;;;;;;;;4918915;29;20039;-30
2022/01/26 05:11:01;;;;;;;15.65;11.13;;;;;;;;;;4917977;29;20047;-31
2022/01/26 05:13:27;;;;;;;12.50;10.88;;;;;;;;;;4918995;29;20031;-31
2022/01/26 05:15:53;;;;;;;16.58;11.23;;;;;;;;;;4918049;29;20028;-30
2022/01/26 05:18:20;;;;;;;16.92;10.77;;;;;;;;;;4919457;29;20039;-31
2022/01/26 05:20:46;;;;;;;14.35;10.68;;;;;;;;;;4919000;29;20363;-31
2022/01/26 05:23:13;;;;;;;21.63;12.48;;;;;;;;;;4918793;29;20036;-31
2022/01/26 05:25:40;;;;;;;13.35;10.75;;;;;;;;;;4919286;29;20024;-30
2022/01/26 05:28:06;;;;;;;16.52;11.38;;;;;;;;;;4917916;29;20051;-30
2022/01/26 05:30:32;;;;;;;15.93;10.15;;;;;;;;;;4918661;29;20144;-30
2022/01/26 05:32:59;;;;;;;15.50;10.27;;;;;;;;;;4918732;29;20020;-30
2022/01/26 05:35:25;;;;;;;16.17;10.70;;;;;;;;;;4918722;29;20024;-29
2022/01/26 05:37:51;;;;;;;21.80;10.55;;;;;;;;;;4917697;29;20346;-30
2022/01/26 05:40:17;;;;;;;18.95;12.30;;;;;;;;;;4918903;29;20376;-31
2022/01/26 05:42:44;;;;;;;14.85;10.43;;;;;;;;;;4919012;29;20028;-30
2022/01/26 05:45:22;;;;;;;26.30;11.40;;;;;;;;;;4918589;29;20056;-31
2022/01/26 05:47:48;;;;;;;16.13;10.55;;;;;;;;;;4918976;29;20329;-31
2022/01/26 05:50:14;;;;;;;19.40;12.00;;;;;;;;;;4918310;29;20028;-31
2022/01/26 05:52:41;;;;;;;22.95;10.63;;;;;;;;;;4918021;29;20048;-31
2022/01/26 05:55:07;;;;;;;19.23;13.10;;;;;;;;;;4919065;29;20352;-30
2022/01/26 05:57:33;;;;;;;23.70;11.88;;;;;;;;;;4918402;29;20028;-31
2022/01/26 06:00:00;;;;;;;18.30;11.35;;;;;;;;;;4918471;29;20028;-31
2022/01/26 06:02:26;;;;;;;19.00;10.60;;;;;;;;;;4918241;29;20035;-30
2022/01/26 06:04:52;;;;;;;15.13;10.75;;;;;;;;;;4918585;29;20038;-31
2022/01/26 06:07:18;;;;;;;23.35;12.57;;;;;;;;;;4917445;29;20103;-31
2022/01/26 06:09:45;;;;;;;17.80;11.45;;;;;;;;;;4918234;29;20042;-30
2022/01/26 06:12:11;;;;;;;22.58;11.23;;;;;;;;;;4918148;29;20036;-30
2022/01/26 06:14:37;;;;;;;23.48;10.55;;;;;;;;;;4918368;29;20020;-32
2022/01/26 06:17:03;;;;;;;19.33;11.10;;;;;;;;;;4918169;29;20083;-31
2022/01/26 06:19:29;;;;;;;20.13;11.88;;;;;;;;;;4918239;29;20056;-31
2022/01/26 06:21:56;;;;;;;26.00;12.10;;;;;;;;;;4918629;29;20098;-31
2022/01/26 06:24:22;;;;;;;20.20;11.32;;;;;;;;;;4917232;29;20036;-31
2022/01/26 06:26:48;;;;;;;20.77;11.85;;;;;;;;;;4918272;29;20028;-31
2022/01/26 06:29:14;;;;;;;22.48;12.88;;;;;;;;;;4917934;29;20028;-30
2022/01/26 06:31:42;;;;;;;15.65;11.20;;;;;;;;;;4917887;29;20482;-29
2022/01/26 06:34:10;;;;;;;19.17;12.38;;;;;;;;;;4919128;29;20107;-30
2022/01/26 06:36:37;;;;;;;13.10;10.00;;;;;;;;;;4918090;29;20388;-29
2022/01/26 06:39:04;;;;;;;12.25;10.25;;;;;;;;;;4918258;29;20153;-30
2022/01/26 06:41:31;;;;;;;20.60;10.13;;;;;;;;;;4917753;29;20106;-31
2022/01/26 06:44:04;;;;;;;20.90;12.80;;;;;;;;;;4917837;29;20036;-30
2022/01/26 06:49:28;;;;;;;19.17;11.88;;;;;;;;;;4906400;29;20115;-30
2022/01/26 06:51:55;;;;;;;21.70;12.60;;;;;;;;;;4917471;29;20511;-30
2022/01/26 06:54:22;;;;;;;17.02;11.55;;;;;;;;;;4916584;29;20373;-30
2022/01/26 06:56:48;;;;;;;21.77;11.38;;;;;;;;;;4917070;29;20107;-31
2022/01/26 06:59:15;;;;;;;20.50;11.82;;;;;;;;;;4916288;29;20038;-30
2022/01/26 07:01:42;;;;;;;26.10;13.70;;;;;;;;;;4917123;29;20035;-30
2022/01/26 07:04:09;;;;;;;19.23;11.07;;;;;;;;;;4918333;29;20472;-31
2022/01/26 07:06:35;;;;;;;19.63;11.73;;;;;;;;;;4921194;29;20040;-31
2022/01/26 07:09:02;;;;;;;17.67;10.57;;;;;;;;;;4921568;29;20036;-31
2022/01/26 07:11:29;;;;;;;16.95;10.73;;;;;;;;;;4921174;29;20439;-31
2022/01/26 07:14:02;;;;;;;14.77;11.88;;;;;;;;;;4921382;29;20103;-32
2022/01/26 07:20:05;;;;;;;15.85;11.57;;;;;;;;;;4921382;29;20102;-31
2022/01/26 07:22:39;;;;;;;14.93;11.00;;;;;;;;;;4921020;29;20040;-32
2022/01/26 07:25:09;;;;;;;27.73;11.45;;;;;;;;;;4920985;29;20190;-32
2022/01/26 07:27:38;;;;;;;23.40;11.48;;;;;;;;;;4921018;29;20059;-32
2022/01/26 07:30:06;;;;;;;16.73;12.00;;;;;;;;;;4920275;29;20349;-31
2022/01/26 07:32:35;;;;;;;17.83;12.05;;;;;;;;;;4920751;29;20044;-30
2022/01/26 07:35:01;;;;;;;21.17;11.57;;;;;;;;;;4920801;29;20234;-31
2022/01/26 07:37:28;;;;;;;22.20;11.27;;;;;;;;;;4920806;29;20384;-30
2022/01/26 07:40:06;;;;;;;22.50;11.95;;;;;;;;;;4920542;29;20028;-30
2022/01/26 07:42:33;;;;;;;15.75;11.10;;;;;;;;;;4920511;29;20028;-31
2022/01/26 07:44:59;;;;;;;18.70;11.20;;;;;;;;;;4920749;29;20032;-32
2022/01/26 07:47:25;;;;;;;13.02;10.40;;;;;;;;;;4919652;29;20039;-31
2022/01/26 07:49:56;;;;;;;17.55;10.85;;;;;;;;;;4920656;29;20036;-30
2022/01/26 07:52:24;;;;;;;17.17;11.18;;;;;;;;;;4920526;29;20036;-31
2022/01/26 07:54:52;;;;;;;25.20;11.65;;;;;;;;;;4920400;29;20465;-30
2022/01/26 07:57:19;;;;;;;16.75;11.55;;;;;;;;;;4920439;29;20024;-30
2022/01/26 07:59:45;;;;;;;21.85;11.25;;;;;;;;;;4920367;29;20080;-32
2022/01/26 08:02:12;;;;;;;20.70;12.52;;;;;;;;;;4919184;29;20028;-31
2022/01/26 08:04:39;;;;;;;19.58;12.75;;;;;;;;;;4920121;29;20481;-30
2022/01/26 08:07:06;;;;;;;18.15;12.10;;;;;;;;;;4920356;29;20040;-31
2022/01/26 08:09:32;;;;;;;19.35;11.57;;;;;;;;;;4920221;29;20028;-30
2022/01/26 08:11:58;;;;;;;21.98;12.70;;;;;;;;;;4920103;29;20028;-31
2022/01/26 08:14:25;;;;;;;20.02;11.32;;;;;;;;;;4919894;29;20171;-30
2022/01/26 08:16:51;;;;;;;19.05;12.32;;;;;;;;;;4920241;29;20035;-31
2022/01/26 08:19:18;;;;;;;27.60;11.95;;;;;;;;;;4920037;29;20028;-31
2022/01/26 08:21:45;;;;;;;23.48;12.90;;;;;;;;;;4920301;29;20372;-30
2022/01/26 08:24:15;;;;;;;27.40;12.38;;;;;;;;;;4920014;29;20032;-30
2022/01/26 08:26:48;;;;;;;16.67;12.20;;;;;;;;;;4920044;29;20036;-30
2022/01/26 08:29:25;;;;;;;16.45;11.25;;;;;;;;;;4919876;29;20033;-30
2022/01/26 08:31:51;;;;;;;20.13;11.80;;;;;;;;;;4919708;29;20029;-31
2022/01/26 08:34:17;;;;;;;18.98;14.07;;;;;;;;;;4919797;29;20025;-31
2022/01/26 08:36:44;;;;;;;25.80;12.10;;;;;;;;;;4919811;29;20036;-31
2022/01/26 08:39:10;;;;;;;25.17;12.40;;;;;;;;;;4919764;29;20051;-31
2022/01/26 08:41:37;;;;;;;18.48;12.57;;;;;;;;;;4919972;29;20028;-31
2022/01/26 08:44:05;;;;;;;21.13;11.30;;;;;;;;;;4919527;29;20032;-30
2022/01/26 08:46:31;;;;;;;23.60;12.23;;;;;;;;;;4918544;29;20543;-31
2022/01/26 08:48:58;;;;;;;18.40;11.98;;;;;;;;;;4918560;29;20363;-30
2022/01/26 08:51:24;;;;;;;17.42;11.98;;;;;;;;;;4918220;29;20029;-31
2022/01/26 08:53:50;;;;;;;20.58;11.55;;;;;;;;;;4919626;29;20020;-31
2022/01/26 08:56:17;;;;;;;18.88;13.20;;;;;;;;;;4919272;29;20055;-29
2022/01/26 08:58:44;;;;;;;18.40;12.75;;;;;;;;;;4919438;29;20044;-31
2022/01/26 09:01:10;;;;;;;19.08;11.93;;;;;;;;;;4918231;29;20095;-30
2022/01/26 09:03:39;;;;;;;24.52;11.88;;;;;;;;;;4919035;29;20058;-31
2022/01/26 09:06:06;;;;;;;17.08;11.82;;;;;;;;;;4919111;29;20032;-31
2022/01/26 09:08:33;;;;;;;24.45;10.95;;;;;;;;;;4919422;29;20456;-30
2022/01/26 09:11:01;;;;;;;22.27;13.95;;;;;;;;;;4918984;29;20436;-31
2022/01/26 09:13:32;;;;;;;21.50;12.00;;;;;;;;;;4919016;29;20028;-30
2022/01/26 09:15:59;;;;;;;19.67;12.05;;;;;;;;;;4919572;29;20039;-30
2022/01/26 09:21:01;;;;;;;23.35;11.88;;;;;;;;;;4918784;29;20123;-32
2022/01/26 09:23:27;;;;;;;19.00;12.27;;;;;;;;;;4918906;29;20059;-31
2022/01/26 09:25:53;;;;;;;20.92;11.27;;;;;;;;;;4918316;29;20043;-31
2022/01/26 09:28:21;;;;;;;17.50;11.75;;;;;;;;;;4919109;29;20039;-32
2022/01/26 09:30:47;;;;;;;24.23;12.40;;;;;;;;;;4918567;29;20031;-30
2022/01/26 09:33:14;;;;;;;18.40;12.18;;;;;;;;;;4918937;29;20024;-29
2022/01/26 09:35:40;;;;;;;26.20;12.18;;;;;;;;;;4919346;29;20344;-30
2022/01/26 09:38:06;;;;;;;22.60;12.48;;;;;;;;;;4919007;29;20039;-29
2022/01/26 09:40:33;;;;;;;25.33;12.70;;;;;;;;;;4918878;29;20083;-29
2022/01/26 09:43:00;;;;;;;23.00;12.07;;;;;;;;;;4918530;29;20059;-30
2022/01/26 09:45:28;;;;;;;29.67;13.32;;;;;;;;;;4918505;29;20466;-30
2022/01/26 09:47:54;;;;;;;20.52;12.43;;;;;;;;;;4919528;29;20353;-31
2022/01/26 09:50:21;;;;;;;20.92;12.10;;;;;;;;;;4918434;29;20024;-31
2022/01/26 09:52:48;;;;;;;16.80;12.43;;;;;;;;;;4918382;29;20028;-30
2022/01/26 09:55:16;;;;;;;21.77;12.10;;;;;;;;;;4919123;29;20033;-30
2022/01/26 09:57:44;;;;;;;20.15;11.43;;;;;;;;;;4918398;29;20024;-30
2022/01/26 10:00:11;;;;;;;29.48;12.23;;;;;;;;;;4918458;29;20333;-30
2022/01/26 10:02:39;;;;;;;23.65;13.15;;;;;;;;;;4917393;29;20025;-30
2022/01/26 10:05:11;;;;;;;30.40;13.38;;;;;;;;;;4917325;29;20420;-31
2022/01/26 10:15:39;;;;;;;25.00;13.38;;;;;;;;;;4918351;29;20127;-30
2022/01/26 10:18:08;;;;;;;27.73;12.45;;;;;;;;;;4918802;29;20169;-30
2022/01/26 10:20:57;;;;;;;22.75;12.25;;;;;;;;;;4918078;29;20031;-30
2022/01/26 10:23:27;;;;;;;27.67;13.45;;;;;;;;;;4917829;29;20444;-31
2022/01/26 10:26:07;;;;;;;19.50;11.85;;;;;;;;;;4917879;29;20040;-30
2022/01/26 10:28:48;;;;;;;18.38;11.95;;;;;;;;;;4918247;29;20035;-31
2022/01/26 10:31:16;;;;;;;21.00;13.43;;;;;;;;;;4918050;29;20024;-31
2022/01/26 10:33:52;;;;;;;16.75;12.80;;;;;;;;;;4917967;29;20374;-30
2022/01/26 10:36:19;;;;;;;20.77;12.68;;;;;;;;;;4918284;29;20048;-30
2022/01/26 10:38:56;;;;;;;26.60;13.27;;;;;;;;;;4919204;29;20029;-30
2022/01/26 10:41:22;;;;;;;26.27;13.85;;;;;;;;;;4921665;29;20036;-30
2022/01/26 10:43:50;;;;;;;26.38;12.48;;;;;;;;;;4921329;29;20035;-35
2022/01/26 10:46:26;;;;;;;25.05;14.15;;;;;;;;;;4920694;29;20043;-30
2022/01/26 10:49:41;;;;;;;23.63;12.77;;;;;;;;;;4921427;29;20432;-31
2022/01/26 10:56:49;;;;;;;27.25;14.90;;;;;;;;;;4921478;29;20099;-30
2022/01/26 10:59:16;;;;;;;21.50;12.60;;;;;;;;;;4921479;29;20091;-30
2022/01/26 11:01:42;;;;;;;28.23;14.60;;;;;;;;;;4921070;29;20476;-30
2022/01/26 11:04:09;;;;;;;20.90;13.00;;;;;;;;;;4920570;29;20063;-29
2022/01/26 11:06:37;;;;;;;21.08;13.15;;;;;;;;;;4921440;29;20058;-31
2022/01/26 11:09:08;;;;;;;20.65;12.88;;;;;;;;;;4920793;29;20032;-31
2022/01/26 11:11:35;;;;;;;26.05;12.93;;;;;;;;;;4920911;29;20117;-31
2022/01/26 11:14:01;;;;;;;27.65;13.27;;;;;;;;;;4919865;29;20050;-32
2022/01/26 11:16:30;;;;;;;22.00;12.68;;;;;;;;;;4920192;29;20028;-30
2022/01/26 11:18:58;;;;;;;25.02;12.27;;;;;;;;;;4919796;29;20056;-31
2022/01/26 11:21:43;;;;;;;22.35;13.90;;;;;;;;;;4919949;29;20032;-31
2022/01/26 11:24:12;;;;;;;25.15;12.90;;;;;;;;;;4920943;29;20024;-31
2022/01/26 11:26:41;;;;;;;16.33;12.30;;;;;;;;;;4919871;29;20028;-31
2022/01/26 11:29:32;;;;;;;21.50;13.25;;;;;;;;;;4919935;29;20418;-31
2022/01/26 11:32:14;;;;;;;26.15;12.30;;;;;;;;;;4919665;29;20088;-30
2022/01/26 11:34:41;;;;;;;22.55;13.05;;;;;;;;;;4920936;29;20477;-30
2022/01/26 11:37:10;;;;;;;25.63;11.93;;;;;;;;;;4920836;29;20357;-30
2022/01/26 11:45:17;;;;;;;18.02;12.50;;;;;;;;;;4920586;29;20043;-30
2022/01/26 11:47:46;;;;;;;28.02;12.27;;;;;;;;;;4920862;29;20456;-30
2022/01/26 11:50:20;;;;;;;18.73;12.50;;;;;;;;;;4920069;29;20040;-31
2022/01/26 11:52:57;;;;;;;22.20;12.52;;;;;;;;;;4919523;29;20068;-30
2022/01/26 11:55:29;;;;;;;18.85;12.65;;;;;;;;;;4919279;29;20095;-31
2022/01/26 11:58:05;;;;;;;29.08;12.95;;;;;;;;;;4920275;29;20028;-30
2022/01/26 12:00:40;;;;;;;17.23;13.07;;;;;;;;;;4920635;29;20095;-29
2022/01/26 12:03:10;;;;;;;19.80;12.15;;;;;;;;;;4920129;29;20072;-30
2022/01/26 12:05:46;;;;;;;18.00;12.35;;;;;;;;;;4920812;29;20023;-30
2022/01/26 12:08:12;;;;;;;23.50;13.32;;;;;;;;;;4903917;29;20357;-31
2022/01/26 12:10:39;;;;;;;30.48;13.85;;;;;;;;;;4919155;29;20032;-31
2022/01/26 12:13:07;;;;;;;16.42;12.07;;;;;;;;;;4920436;29;20040;-30
2022/01/26 12:15:48;;;;;;;27.85;12.65;;;;;;;;;;4920124;29;20024;-30
2022/01/26 12:34:42;;;;;;;21.70;11.55;;;;;;;;;;4919606;29;20063;-30
2022/01/26 12:45:25;;;;;;;26.35;12.57;;;;;;;;;;4919271;29;20043;-30
2022/01/26 12:47:52;;;;;;;26.27;13.63;;;;;;;;;;4919791;29;20028;-31
2022/01/26 12:50:19;;;;;;;20.98;12.98;;;;;;;;;;4919261;29;20044;-31
2022/01/26 12:52:48;;;;;;;19.30;12.75;;;;;;;;;;4919675;29;20039;-30
2022/01/26 12:55:28;;;;;;;24.40;13.73;;;;;;;;;;4918561;29;20103;-31
2022/01/26 12:57:55;;;;;;;24.17;12.65;;;;;;;;;;4919690;29;20024;-29
2022/01/26 13:00:23;;;;;;;17.80;10.60;;;;;;;;;;4918956;29;20032;-30
2022/01/26 13:02:50;;;;;;;33.03;13.85;;;;;;;;;;4918775;29;20055;-31
2022/01/26 13:05:22;;;;;;;16.33;10.95;;;;;;;;;;4920082;29;20035;-31
2022/01/26 13:07:58;;;;;;;22.63;12.30;;;;;;;;;;4919260;29;20020;-29
2022/01/26 13:10:24;;;;;;;24.55;12.98;;;;;;;;;;4918901;29;20087;-30
2022/01/26 13:12:51;;;;;;;18.92;11.50;;;;;;;;;;4917889;29;20456;-30
2022/01/26 13:15:24;;;;;;;22.10;12.55;;;;;;;;;;4918974;29;20103;-29
2022/01/26 13:18:08;;;;;;;20.15;12.50;;;;;;;;;;4917944;29;20024;-30
2022/01/26 13:41:31;;;;;;;27.27;12.18;;;;;;;;;;4918600;29;20372;-30
2022/01/26 13:49:58;;;;;;;18.90;11.32;;;;;;;;;;4918487;29;20139;-32
2022/01/26 13:52:37;;;;;;;23.52;11.50;;;;;;;;;;4918349;29;20428;-31
2022/01/26 14:00:19;;;;;;;19.52;11.65;;;;;;;;;;4918421;29;20134;-29
2022/01/26 14:02:48;;;;;;;20.30;11.82;;;;;;;;;;4902171;29;20138;-30
2022/01/26 14:05:14;;;;;;;21.75;11.88;;;;;;;;;;4918542;29;20032;-30
2022/01/26 14:07:40;;;;;;;29.95;12.80;;;;;;;;;;4918434;29;20046;-29
2022/01/26 14:10:07;;;;;;;15.98;10.98;;;;;;;;;;4918155;29;20502;-30
2022/01/26 14:12:38;;;;;;;22.13;11.20;;;;;;;;;;4918063;29;20040;-30
2022/01/26 14:15:07;;;;;;;19.83;11.45;;;;;;;;;;4918075;29;20056;-30
2022/01/26 14:17:42;;;;;;;21.55;12.02;;;;;;;;;;4917776;29;20084;-30
2022/01/26 14:21:23;;;;;;;16.67;11.48;;;;;;;;;;4918365;29;20345;-30
2022/01/26 14:23:41;;;;;;;21.08;11.70;;;;;;;;;;4913288;29;20101;-32
2022/01/26 14:26:05;;;;;;;20.75;12.50;;;;;;;;;;4918098;29;20421;-31
2022/01/26 14:28:35;;;;;;;25.65;12.85;;;;;;;;;;4917957;29;20638;-31
2022/01/26 14:34:06;;;;;;;20.65;12.32;;;;;;;;;;4918270;29;20502;-30
2022/01/26 14:36:49;;;;;;;18.67;11.68;;;;;;;;;;4918133;29;20106;-32
2022/01/26 14:55:54;;;;;;;22.63;10.38;;;;;;;;;;4917965;29;20482;-31
2022/01/26 15:19:02;;;;;;;20.17;11.23;;;;;;;;;;4917911;29;20048;-32
2022/01/26 15:33:46;;;;;;;16.33;9.80;;;;;;;;;;4920747;29;20107;-31
2022/01/26 15:42:13;;;;;;;16.20;11.70;;;;;;;;;;4921104;29;20383;-31
2022/01/26 15:52:56;;;;;;;17.67;10.60;;;;;;;;;;4921000;29;20051;-31
2022/01/26 15:58:16;;;;;;;25.13;11.30;;;;;;;;;;4920757;29;20059;-31
2022/01/26 16:06:21;;;;;;;20.13;10.55;;;;;;;;;;4920914;29;20106;-31
2022/01/26 16:17:21;;;;;;;19.42;9.98;;;;;;;;;;4920716;29;20124;-30
2022/01/26 16:20:12;;;;;;;19.75;10.60;;;;;;;;;;4920322;29;20028;-32
2022/01/26 17:12:59;;;;;;;19.67;10.38;;;;;;;;;;4919225;29;20375;-31
2022/01/26 17:26:46;;;;;;;20.55;9.45;;;;;;;;;;4919529;29;20055;-31
2022/01/26 17:37:50;;;;;;;24.08;11.60;;;;;;;;;;4918921;29;20398;-31
2022/01/26 18:17:43;;;;;;;19.02;10.45;;;;;;;;;;4918203;29;20380;-31
2022/01/26 18:49:58;;;;;;;21.75;9.25;;;;;;;;;;4917916;29;20067;-30
2022/01/26 18:52:24;;;;;;;18.02;8.18;;;;;;;;;;4916776;29;20028;-30
2022/01/26 18:54:50;;;;;;;20.02;9.00;;;;;;;;;;4916942;29;20111;-30
2022/01/26 18:57:16;;;;;;;17.58;8.88;;;;;;;;;;4917966;29;20035;-31
2022/01/26 18:59:42;;;;;;;24.08;9.32;;;;;;;;;;4918287;29;20095;-29
2022/01/26 19:02:09;;;;;;;17.42;9.32;;;;;;;;;;4921713;29;20091;-30
2022/01/26 19:04:46;;;;;;;23.52;9.63;;;;;;;;;;4921195;29;20453;-31
2022/01/26 19:07:14;;;;;;;19.88;9.55;;;;;;;;;;4920657;29;20044;-31
2022/01/26 19:09:43;;;;;;;17.00;9.52;;;;;;;;;;4921664;29;20058;-31
2022/01/26 19:12:13;;;;;;;22.98;11.10;;;;;;;;;;4922356;29;20340;-31
2022/01/26 19:14:44;;;;;;;24.35;9.98;;;;;;;;;;4921332;29;20028;-31
2022/01/26 19:17:17;;;;;;;14.60;8.50;;;;;;;;;;4921897;29;20107;-31
2022/01/26 19:19:58;;;;;;;18.75;9.48;;;;;;;;;;4921315;29;20459;-30
2022/01/26 19:25:18;;;;;;;24.00;9.73;;;;;;;;;;4921293;29;20086;-30
2022/01/26 19:33:24;;;;;;;19.45;9.40;;;;;;;;;;4921351;29;20051;-30
2022/01/26 19:46:48;;;;;;;23.83;9.30;;;;;;;;;;4920834;29;20091;-31
2022/01/26 19:54:28;;;;;;;17.65;8.63;;;;;;;;;;4920723;29;20028;-30
2022/01/26 19:56:55;;;;;;;23.38;9.45;;;;;;;;;;4920609;29;20337;-30
2022/01/26 19:59:21;;;;;;;25.13;10.23;;;;;;;;;;4920580;29;20024;-31
2022/01/26 20:01:47;;;;;;;17.63;8.32;;;;;;;;;;4919537;29;20032;-31
2022/01/26 20:04:13;;;;;;;29.77;9.70;;;;;;;;;;4922909;29;20421;-31
2022/01/26 20:06:40;;;;;;;15.90;8.45;;;;;;;;;;4919474;29;20028;-30
2022/01/26 20:09:21;;;;;;;27.33;9.23;;;;;;;;;;4920588;29;20040;-30
2022/01/26 20:11:58;;;;;;;16.98;8.65;;;;;;;;;;4919311;29;20364;-31
2022/01/26 20:14:32;;;;;;;16.17;9.07;;;;;;;;;;4920342;29;20104;-30
2022/01/26 20:16:59;;;;;;;30.27;8.77;;;;;;;;;;4920707;29;20048;-31
2022/01/26 20:19:25;;;;;;;16.83;9.35;;;;;;;;;;4920320;29;20024;-31
2022/01/26 20:21:52;;;;;;;23.42;9.80;;;;;;;;;;4920235;29;20032;-30
2022/01/26 20:24:19;;;;;;;17.15;8.63;;;;;;;;;;4920171;29;20095;-30
2022/01/26 20:26:45;;;;;;;18.75;8.35;;;;;;;;;;4920075;29;20036;-30
2022/01/26 20:29:11;;;;;;;19.92;9.93;;;;;;;;;;4919022;29;20036;-29
2022/01/26 20:31:38;;;;;;;24.80;10.02;;;;;;;;;;4920095;29;20120;-30
2022/01/26 20:34:04;;;;;;;21.75;8.85;;;;;;;;;;4919754;29;20084;-30
2022/01/26 20:36:31;;;;;;;23.75;9.40;;;;;;;;;;4920128;29;20103;-30
2022/01/26 20:38:58;;;;;;;18.63;9.60;;;;;;;;;;4919833;29;20392;-31
2022/01/26 20:41:24;;;;;;;12.57;8.68;;;;;;;;;;4920060;29;20116;-31
2022/01/26 20:43:50;;;;;;;18.02;8.30;;;;;;;;;;4919549;29;20031;-31
2022/01/26 20:46:16;;;;;;;17.33;8.43;;;;;;;;;;4920032;29;20051;-31
2022/01/26 20:48:43;;;;;;;16.83;10.00;;;;;;;;;;4920094;29;20094;-30
2022/01/26 20:51:09;;;;;;;13.85;9.48;;;;;;;;;;4920293;29;20452;-31
2022/01/26 20:53:35;;;;;;;22.17;8.57;;;;;;;;;;4919615;29;20141;-31
2022/01/26 20:56:01;;;;;;;23.85;8.60;;;;;;;;;;4919812;29;20188;-30
2022/01/26 20:58:28;;;;;;;18.90;9.38;;;;;;;;;;4919365;29;20028;-30
2022/01/26 21:00:55;;;;;;;19.10;9.10;;;;;;;;;;4919643;29;20099;-30
2022/01/26 21:03:22;;;;;;;19.45;8.30;;;;;;;;;;4919303;29;20036;-30
2022/01/26 21:05:49;;;;;;;16.92;8.50;;;;;;;;;;4918315;29;20052;-30
2022/01/26 21:08:16;;;;;;;25.23;8.38;;;;;;;;;;4918053;29;20099;-29
2022/01/26 21:10:43;;;;;;;20.65;9.93;;;;;;;;;;4919035;29;20032;-30
2022/01/26 21:13:09;;;;;;;15.52;8.65;;;;;;;;;;4919142;29;20032;-29
2022/01/26 21:15:35;;;;;;;16.75;7.57;;;;;;;;;;4919020;29;20088;-30
2022/01/26 21:18:01;;;;;;;19.98;8.02;;;;;;;;;;4918044;29;20036;-31
2022/01/26 21:20:28;;;;;;;20.27;9.02;;;;;;;;;;4918909;29;20047;-30
2022/01/26 21:22:56;;;;;;;19.10;9.43;;;;;;;;;;4917358;29;20360;-30
2022/01/26 21:25:23;;;;;;;25.00;9.15;;;;;;;;;;4918972;29;20024;-31
2022/01/26 21:27:50;;;;;;;15.30;8.48;;;;;;;;;;4919156;29;20038;-30